Time;durP1;ratioP1;P1;durP2;ratioP2;P2;SDS_P1;SDS_P2;PMS_P1;PMS_P2;Temp;Humidity;BMP_temperature;BMP_pressure;BME280_temperature;BME280_humidity;BME280_pressure;Samples;Min_cycle;Max_cycle;Signal;HPM_P1;HPM_P2
2023/04/12 00:02:05;;;;;;;54.95;29.70;;;;;;;22.75;66.17;98659.47;4962677;28;20050;-62
2023/04/12 00:04:34;;;;;;;63.40;30.58;;;;;;;22.67;65.57;98652.69;4968846;28;20474;-62
2023/04/12 00:07:05;;;;;;;57.28;31.55;;;;;;;22.72;65.58;98665.41;4977323;28;20051;-62
2023/04/12 00:09:36;;;;;;;51.08;29.67;;;;;;;22.68;66.07;98658.91;4976620;28;20049;-62
2023/04/12 00:12:06;;;;;;;67.20;32.15;;;;;;;22.70;66.22;98664.88;4959587;28;20052;-62
2023/04/12 00:14:36;;;;;;;62.03;30.73;;;;;;;22.74;66.42;98672.19;4979703;28;20042;-62
2023/04/12 00:17:05;;;;;;;59.03;32.20;;;;;;;22.65;66.36;98664.84;4979952;28;20038;-62
2023/04/12 00:19:35;;;;;;;63.70;32.05;;;;;;;22.63;66.45;98669.69;4983014;28;20065;-62
2023/04/12 00:22:05;;;;;;;59.42;31.55;;;;;;;22.62;66.54;98668.06;4980071;28;20474;-61
2023/04/12 00:24:34;;;;;;;67.32;30.80;;;;;;;22.59;65.74;98674.03;4983315;28;20046;-62
2023/04/12 00:27:04;;;;;;;57.30;30.83;;;;;;;22.57;66.65;98678.91;4973047;28;20057;-63
2023/04/12 00:29:35;;;;;;;54.10;30.88;;;;;;;22.56;66.55;98686.19;4967192;28;20070;-62
2023/04/12 00:32:05;;;;;;;66.47;30.63;;;;;;;22.55;66.59;98683.75;4970130;28;20125;-62
2023/04/12 00:34:34;;;;;;;58.40;29.77;;;;;;;22.56;67.02;98682.69;4949770;28;20047;-62
2023/04/12 00:37:04;;;;;;;61.75;30.33;;;;;;;22.59;67.55;98684.81;4962005;28;20058;-62
2023/04/12 00:39:33;;;;;;;51.58;29.30;;;;;;;22.61;67.69;98683.50;4986216;28;20154;-61
2023/04/12 00:42:04;;;;;;;49.85;28.73;;;;;;;22.63;68.11;98683.19;4983132;28;20413;-63
2023/04/12 00:44:34;;;;;;;56.85;28.45;;;;;;;22.61;67.55;98688.91;4974690;28;20070;-63
2023/04/12 00:47:04;;;;;;;50.97;27.73;;;;;;;22.59;67.57;98696.44;4978389;28;20485;-61
2023/04/12 00:49:34;;;;;;;55.03;28.65;;;;;;;22.62;67.99;98695.06;4985129;28;20054;-62
2023/04/12 00:52:07;;;;;;;50.83;28.23;;;;;;;22.64;68.23;98704.53;4982732;28;20124;-62
2023/04/12 00:54:37;;;;;;;55.85;28.52;;;;;;;22.62;68.68;98705.88;4985091;28;20054;-61
2023/04/12 00:57:07;;;;;;;55.55;28.63;;;;;;;22.59;68.39;98712.63;4967637;28;20046;-63
2023/04/12 00:59:36;;;;;;;61.60;30.35;;;;;;;22.58;68.69;98707.50;4968913;28;20065;-61
2023/04/12 01:02:06;;;;;;;57.85;29.05;;;;;;;22.61;69.06;98704.28;4964268;28;20074;-63
2023/04/12 01:04:36;;;;;;;49.40;28.48;;;;;;;22.65;68.79;98710.75;4967798;28;20046;-63
2023/04/12 01:07:37;;;;;;;58.75;30.77;;;;;;;;;;4955419;28;20109;-61
2023/04/12 01:10:18;;;;;;;53.38;29.50;;;;;;;22.71;68.83;98725.88;4923922;28;20467;-62
2023/04/12 01:13:24;;;;;;;60.17;29.30;;;;;;;22.73;68.64;98726.44;4965350;28;20149;-63
2023/04/12 01:16:19;;;;;;;57.03;28.90;;;;;;;22.76;69.16;98724.00;4958051;28;20055;-62
2023/04/12 01:18:52;;;;;;;48.35;27.83;;;;;;;22.83;68.76;98731.84;4958475;28;20052;-62
2023/04/12 01:21:49;;;;;;;52.63;28.73;;;;;;;22.92;69.18;98737.50;4949777;28;20038;-63
2023/04/12 01:24:54;;;;;;;57.65;27.85;;;;;;;22.94;69.61;98732.63;4983685;28;20047;-62
2023/04/12 01:27:55;;;;;;;53.35;29.08;;;;;;;23.00;69.71;98726.97;4951703;28;20794;-61
2023/04/12 01:30:27;;;;;;;59.67;30.27;;;;;;;23.06;69.21;98727.75;4948016;28;20050;-62
2023/04/12 01:33:00;;;;;;;53.33;29.45;;;;;;;23.13;69.50;98728.28;4978535;28;20038;-62
2023/04/12 01:35:32;;;;;;;55.17;28.85;;;;;;;23.22;69.15;98734.75;4967780;28;20044;-62
2023/04/12 01:38:04;;;;;;;58.47;29.53;;;;;;;23.28;68.69;98739.06;4968105;28;20074;-63
2023/04/12 01:40:35;;;;;;;70.85;29.40;;;;;;;23.37;69.04;98739.34;4984087;28;20053;-61
2023/04/12 01:43:12;;;;;;;51.97;28.40;;;;;;;23.45;68.72;98744.19;4978546;28;20050;-62
2023/04/12 01:45:42;;;;;;;55.17;28.60;;;;;;;23.48;67.88;98744.44;4984493;28;20050;-61
2023/04/12 01:48:12;;;;;;;56.42;28.13;;;;;;;23.68;68.02;98743.56;4984533;28;20656;-62
2023/04/12 01:50:59;;;;;;;69.53;28.33;;;;;;;23.87;67.26;98749.16;4980665;28;20046;-62
2023/04/12 01:53:50;;;;;;;50.13;27.45;;;;;;;24.02;67.16;98752.63;4967571;28;20054;-61
2023/04/12 01:56:23;;;;;;;64.75;28.27;;;;;;;24.08;67.50;98756.09;4969455;28;20058;-63
2023/04/12 01:58:56;;;;;;;55.53;28.77;;;;;;;24.19;68.18;98752.28;4979671;28;20057;-62
2023/04/12 02:01:27;;;;;;;59.47;29.48;;;;;;;24.36;68.26;98758.13;4982718;28;20089;-61
2023/04/12 02:03:59;;;;;;;55.08;28.92;;;;;;;24.47;67.99;98758.91;4950310;28;20077;-62
2023/04/12 02:06:30;;;;;;;60.72;29.55;;;;;;;24.58;67.72;98757.72;4962706;28;20062;-62
2023/04/12 02:09:02;;;;;;;56.25;30.58;;;;;;;24.74;66.93;98758.44;4964782;28;20043;-63
2023/04/12 02:11:33;;;;;;;68.93;29.85;;;;;;;24.96;65.29;98773.16;4954701;28;20632;-63
2023/04/12 02:14:03;;;;;;;61.22;27.58;;;;;;;25.50;63.40;98772.09;4979876;28;20045;-63
2023/04/12 02:16:33;;;;;;;57.58;27.67;;;;;;;26.10;61.22;98777.94;4971864;28;20042;-64
2023/04/12 02:19:07;;;;;;;58.20;28.23;;;;;;;26.53;59.27;98774.09;4982044;28;20046;-63
2023/04/12 02:21:44;;;;;;;56.22;28.33;;;;;;;26.93;59.45;98786.25;4982204;28;20124;-59
2023/04/12 02:24:14;;;;;;;59.97;27.73;;;;;;;27.16;58.65;98784.53;4965505;28;20129;-59
2023/04/12 02:26:45;;;;;;;68.72;28.20;;;;;;;27.31;57.85;98786.94;4972919;28;20042;-62
2023/04/12 02:29:15;;;;;;;62.33;29.33;;;;;;;27.30;58.16;98788.09;4982636;28;20053;-59
2023/04/12 02:31:47;;;;;;;56.10;27.40;;;;;;;27.26;58.01;98797.94;4967160;28;20052;-62
2023/04/12 02:34:16;;;;;;;57.83;28.77;;;;;;;27.28;59.20;98795.72;4963120;28;20043;-59
2023/04/12 02:36:52;;;;;;;51.70;28.13;;;;;;;27.42;58.85;98802.00;4969598;28;20035;-60
2023/04/12 02:39:22;;;;;;;59.55;28.08;;;;;;;27.59;57.44;98807.69;4979069;28;20468;-62
2023/04/12 02:41:52;;;;;;;58.78;29.30;;;;;;;27.86;57.15;98797.94;4950945;28;20050;-63
2023/04/12 02:44:21;;;;;;;69.72;30.50;;;;;;;28.05;56.64;98809.53;4981676;28;20094;-63
2023/04/12 02:47:13;;;;;;;65.97;28.98;;;;;;;27.94;55.50;98814.38;4974573;28;20153;-62
2023/04/12 02:49:46;;;;;;;70.25;29.60;;;;;;;27.97;55.77;98812.97;4986587;28;20672;-63
2023/04/12 02:52:18;;;;;;;68.68;30.92;;;;;;;27.95;55.42;98815.97;4980098;28;20084;-63
2023/04/12 02:55:00;;;;;;;74.75;31.17;;;;;;;27.82;55.11;98819.50;4976251;28;20134;-62
2023/04/12 02:57:30;;;;;;;73.93;31.35;;;;;;;27.70;54.14;98816.50;4967076;28;20046;-62
2023/04/12 03:00:00;;;;;;;68.78;31.23;;;;;;;27.65;56.79;98820.13;4973562;28;20050;-62
2023/04/12 03:02:39;;;;;;;68.35;28.90;;;;;;;27.59;55.32;98818.59;4967177;28;20133;-62
2023/04/12 03:05:16;;;;;;;61.70;29.42;;;;;;;27.56;54.85;98821.91;4977343;28;20120;-62
2023/04/12 03:07:46;;;;;;;72.10;27.83;;;;;;;27.54;54.67;98820.59;4982920;28;20058;-62
2023/04/12 03:10:20;;;;;;;66.45;28.02;;;;;;;27.53;55.42;98825.22;4954292;28;20062;-62
2023/04/12 03:13:15;;;;;;;57.28;25.88;;;;;;;27.56;53.98;98824.63;4966389;28;20137;-63
2023/04/12 03:15:51;;;;;;;63.88;27.63;;;;;;;27.59;54.21;98837.63;4972439;28;20046;-64
2023/04/12 03:18:22;;;;;;;49.97;24.88;;;;;;;27.58;54.67;98832.47;4984828;28;20109;-63
2023/04/12 03:20:53;;;;;;;47.60;24.45;;;;;;;27.52;52.67;98834.50;4970493;28;20560;-60
2023/04/12 03:23:22;;;;;;;45.83;22.40;;;;;;;27.64;50.68;98842.16;4978022;28;20074;-62
2023/04/12 03:26:07;;;;;;;46.60;23.15;;;;;;;27.81;49.03;98833.41;4965232;28;20478;-62
2023/04/12 03:28:37;;;;;;;47.30;22.05;;;;;;;27.90;49.94;98829.69;4970011;28;20046;-63
2023/04/12 03:31:07;;;;;;;46.40;23.75;;;;;;;27.98;49.34;98833.63;4987050;28;20064;-62
2023/04/12 03:33:42;;;;;;;50.58;22.70;;;;;;;28.02;48.81;98832.72;4984137;28;20042;-62
2023/04/12 03:36:38;;;;;;;39.25;23.27;;;;;;;28.07;50.06;98834.53;4969079;28;20045;-64
2023/04/12 03:39:22;;;;;;;46.97;23.75;;;;;;;28.11;51.05;98841.00;4976485;28;20055;-64
2023/04/12 03:41:53;;;;;;;54.33;23.92;;;;;;;28.18;47.82;98838.69;4961020;28;20146;-61
2023/04/12 03:44:28;;;;;;;54.28;24.40;;;;;;;28.26;45.79;98842.63;4963217;28;20393;-61
2023/04/12 03:46:59;;;;;;;52.80;24.45;;;;;;;28.33;47.85;98838.34;4971507;28;20038;-61
2023/04/12 03:49:37;;;;;;;50.50;24.13;;;;;;;28.38;47.12;98838.25;4968929;28;20065;-60
2023/04/12 03:52:11;;;;;;;53.03;24.30;;;;;;;28.47;47.34;98838.34;4962044;28;20047;-61
2023/04/12 03:54:44;;;;;;;51.45;22.60;;;;;;;28.63;45.33;98838.81;4946546;28;20513;-61
2023/04/12 03:57:22;;;;;;;49.53;22.13;;;;;;;28.65;45.87;98831.94;4967677;28;20051;-62
2023/04/12 03:59:52;;;;;;;58.08;21.73;;;;;;;28.65;47.40;98834.66;4958039;28;20082;-62
2023/04/12 04:02:26;;;;;;;46.22;20.83;;;;;;;28.71;47.25;98832.66;4959263;28;20129;-61
2023/04/12 04:04:57;;;;;;;44.15;20.23;;;;;;;28.72;46.91;98835.09;4954886;28;20043;-61
2023/04/12 04:07:27;;;;;;;43.17;19.13;;;;;;;28.82;44.11;98831.31;4948704;28;20078;-61
2023/04/12 04:09:57;;;;;;;46.08;19.90;;;;;;;28.96;42.87;98840.25;4961225;28;20082;-61
2023/04/12 04:12:33;;;;;;;46.15;17.58;;;;;;;29.09;42.34;98841.28;4956697;28;20049;-62
2023/04/12 04:15:03;;;;;;;44.75;16.55;;;;;;;29.15;44.66;98832.69;4955610;28;20147;-60
2023/04/12 04:17:33;;;;;;;28.48;14.05;;;;;;;29.08;45.26;98837.75;4957273;28;20074;-60
2023/04/12 04:20:04;;;;;;;40.58;14.32;;;;;;;29.10;43.89;98835.53;4955468;28;20054;-62
2023/04/12 04:22:37;;;;;;;36.20;11.60;;;;;;;29.12;41.07;98836.03;4955770;28;20046;-60
2023/04/12 04:25:06;;;;;;;22.17;11.45;;;;;;;29.21;43.37;98838.84;4938048;28;20584;-61
2023/04/12 04:27:43;;;;;;;22.63;11.60;;;;;;;29.28;43.54;98844.66;4975929;28;20548;-60
2023/04/12 04:30:15;;;;;;;32.75;13.93;;;;;;;29.30;44.51;98839.69;4953139;28;20371;-60
2023/04/12 04:32:47;;;;;;;31.23;14.98;;;;;;;29.41;44.89;98836.41;4954629;28;20142;-61
2023/04/12 04:35:20;;;;;;;36.58;14.68;;;;;;;29.51;45.50;98837.28;4963399;28;20145;-60
2023/04/12 04:38:04;;;;;;;29.52;13.18;;;;;;;29.66;44.58;98840.38;4959570;28;20043;-61
2023/04/12 04:40:38;;;;;;;26.83;12.40;;;;;;;29.75;44.67;98834.97;4953646;28;20044;-60
2023/04/12 04:43:12;;;;;;;24.10;10.20;;;;;;;29.91;43.05;98835.41;4955710;28;20710;-59
2023/04/12 04:45:45;;;;;;;22.55;10.48;;;;;;;30.13;44.56;98830.66;4971635;28;20149;-62
2023/04/12 04:48:15;;;;;;;28.13;10.68;;;;;;;30.24;43.37;98834.69;4956049;28;20055;-60
2023/04/12 04:50:45;;;;;;;32.58;11.88;;;;;;;30.40;42.33;98837.00;4954398;28;20042;-60
2023/04/12 04:53:18;;;;;;;29.63;11.23;;;;;;;30.46;42.85;98835.72;4958341;28;20043;-60
2023/04/12 04:55:49;;;;;;;28.02;11.90;;;;;;;30.80;41.61;98830.31;4975772;28;20098;-58
2023/04/12 04:58:18;;;;;;;23.73;9.68;;;;;;;30.98;40.28;98828.38;4963746;28;20457;-60
2023/04/12 05:00:49;;;;;;;26.50;9.02;;;;;;;31.20;38.47;98841.91;4954675;28;20058;-57
2023/04/12 05:03:18;;;;;;;20.27;9.07;;;;;;;31.21;38.01;98838.00;4971636;28;20490;-62
2023/04/12 05:05:50;;;;;;;26.05;10.57;;;;;;;31.34;39.32;98841.69;4949951;28;20045;-62
2023/04/12 05:08:21;;;;;;;15.63;9.98;;;;;;;31.41;38.67;98833.78;4976640;28;20559;-62
2023/04/12 05:10:52;;;;;;;25.95;12.65;;;;;;;31.58;40.55;98836.50;4975869;28;20083;-61
2023/04/12 05:13:24;;;;;;;24.10;11.38;;;;;;;31.58;40.71;98839.25;4974472;28;20051;-61
2023/04/12 05:15:54;;;;;;;26.40;11.10;;;;;;;31.53;39.35;98839.38;4954949;28;20047;-63
2023/04/12 05:18:23;;;;;;;30.35;11.15;;;;;;;31.60;39.47;98839.75;4944602;28;20044;-61
2023/04/12 05:20:53;;;;;;;31.05;12.75;;;;;;;31.63;39.95;98839.06;4955403;28;20047;-61
2023/04/12 05:23:23;;;;;;;38.63;13.85;;;;;;;31.66;39.42;98843.88;4974255;28;20074;-60
2023/04/12 05:25:53;;;;;;;48.17;15.70;;;;;;;31.68;37.23;98835.34;4960615;28;20146;-63
2023/04/12 05:28:24;;;;;;;33.58;12.77;;;;;;;31.72;39.17;98848.06;4954420;28;20137;-63
2023/04/12 05:30:54;;;;;;;33.20;14.73;;;;;;;31.70;38.40;98839.38;4972028;28;20060;-63
2023/04/12 05:33:33;;;;;;;29.52;13.82;;;;;;;32.07;37.49;98838.56;4974746;28;20539;-67
2023/04/12 05:36:04;;;;;;;29.42;15.23;;;;;;;32.39;37.35;98844.53;4611481;28;9999715;-64
2023/04/12 05:38:34;;;;;;;43.17;15.82;;;;;;;32.28;37.64;98835.88;4965188;28;20051;-63
2023/04/12 05:41:10;;;;;;;33.17;16.27;;;;;;;32.34;36.06;98842.00;4957713;28;20098;-62
2023/04/12 05:43:40;;;;;;;43.42;16.02;;;;;;;32.47;36.94;98838.19;4969828;28;20588;-63
2023/04/12 05:46:10;;;;;;;32.05;15.52;;;;;;;32.65;33.58;98841.66;4984793;28;20125;-61
2023/04/12 05:48:42;;;;;;;30.42;15.45;;;;;;;32.75;37.10;98839.28;4954735;28;20053;-61
2023/04/12 05:51:13;;;;;;;33.42;15.88;;;;;;;33.03;34.63;98831.31;4949225;28;20171;-65
2023/04/12 05:53:45;;;;;;;35.80;16.67;;;;;;;33.20;34.77;98835.88;4948729;28;20764;-62
2023/04/12 05:56:16;;;;;;;63.22;17.33;;;;;;;33.17;36.40;98836.53;4937269;28;20043;-65
2023/04/12 05:58:47;;;;;;;36.83;16.65;;;;;;;33.24;36.76;98836.78;4953632;28;20047;-62
2023/04/12 06:01:18;;;;;;;36.28;16.20;;;;;;;33.25;37.25;98821.94;4960865;28;20039;-62
2023/04/12 06:03:48;;;;;;;29.02;15.65;;;;;;;33.06;35.78;98825.16;4953868;28;20054;-61
2023/04/12 06:06:19;;;;;;;27.83;13.50;;;;;;;33.63;31.80;98822.50;4955796;28;20555;-61
2023/04/12 06:08:49;;;;;;;24.63;13.75;;;;;;;33.65;33.38;98830.38;4958082;28;20061;-61
2023/04/12 06:11:18;;;;;;;28.13;13.13;;;;;;;33.74;35.74;98820.91;4933597;28;20058;-61
2023/04/12 06:13:48;;;;;;;33.22;13.20;;;;;;;33.69;32.68;98826.63;4955198;28;20043;-62
2023/04/12 06:16:17;;;;;;;27.63;12.75;;;;;;;33.68;33.54;98816.00;4945195;28;20043;-61
2023/04/12 06:18:47;;;;;;;29.08;12.65;;;;;;;33.67;32.89;98817.94;4961957;28;20055;-62
2023/04/12 06:21:17;;;;;;;21.98;11.27;;;;;;;33.61;34.36;98822.03;4946768;28;20046;-60
2023/04/12 06:23:46;;;;;;;23.45;10.95;;;;;;;33.67;35.22;98817.94;4956128;28;20066;-64
2023/04/12 06:26:17;;;;;;;26.65;10.93;;;;;;;33.41;34.37;98809.19;4959513;28;20051;-61
2023/04/12 06:28:47;;;;;;;21.67;9.63;;;;;;;33.44;33.59;98813.97;4944982;28;20055;-63
2023/04/12 06:31:17;;;;;;;30.15;10.32;;;;;;;33.52;33.49;98815.81;4970488;28;20117;-63
2023/04/12 06:33:49;;;;;;;27.00;10.48;;;;;;;33.74;34.83;98804.44;4965931;28;20043;-61
2023/04/12 06:36:18;;;;;;;33.17;10.85;;;;;;;33.98;27.80;98791.84;4951196;28;20059;-63
2023/04/12 06:38:50;;;;;;;23.55;10.18;;;;;;;34.01;31.36;98802.94;4957237;28;20047;-63
2023/04/12 06:41:20;;;;;;;25.83;11.25;;;;;;;34.22;31.46;98791.84;4952337;28;20145;-60
2023/04/12 06:43:59;;;;;;;29.90;11.77;;;;;;;34.44;29.29;98790.53;4951162;28;20554;-63
2023/04/12 06:46:29;;;;;;;27.25;11.38;;;;;;;34.33;26.89;98778.44;4950415;28;20054;-63
2023/04/12 06:48:58;;;;;;;27.92;10.95;;;;;;;34.72;27.50;98785.91;4959926;28;20443;-62
2023/04/12 06:51:29;;;;;;;27.67;11.32;;;;;;;34.61;29.78;98780.06;4952858;28;20160;-65
2023/04/12 06:53:58;;;;;;;22.73;10.25;;;;;;;34.55;30.03;98780.66;4975411;28;20553;-62
2023/04/12 06:56:27;;;;;;;26.00;9.05;;;;;;;34.53;30.14;98767.25;4971880;28;20582;-64
2023/04/12 06:58:57;;;;;;;27.65;9.38;;;;;;;34.80;26.12;98778.66;4975734;28;20046;-65
2023/04/12 07:01:28;;;;;;;23.92;9.07;;;;;;;34.64;27.73;98770.31;4972795;28;20050;-62
2023/04/12 07:03:58;;;;;;;21.67;8.98;;;;;;;34.71;28.04;98776.03;4974315;28;20149;-65
2023/04/12 07:06:27;;;;;;;31.83;7.80;;;;;;;34.82;24.74;98768.91;4972052;28;20050;-65
2023/04/12 07:08:57;;;;;;;24.52;6.57;;;;;;;34.62;29.47;98756.91;4970347;28;20138;-64
2023/04/12 07:11:27;;;;;;;10.50;5.78;;;;;;;34.50;29.78;98756.94;4976250;28;20072;-61
2023/04/12 07:13:59;;;;;;;15.10;6.13;;;;;;;34.54;28.37;98757.03;4970679;28;20046;-60
2023/04/12 07:16:32;;;;;;;33.85;7.10;;;;;;;34.76;27.92;98756.53;4970097;28;20053;-60
2023/04/12 07:19:02;;;;;;;18.42;6.05;;;;;;;34.78;25.26;98748.75;4963657;28;20062;-61
2023/04/12 07:21:32;;;;;;;19.85;5.72;;;;;;;34.79;27.64;98747.56;4970308;28;20501;-60
2023/04/12 07:24:02;;;;;;;18.50;5.47;;;;;;;34.79;26.84;98749.53;4965147;28;20055;-60
2023/04/12 07:26:32;;;;;;;16.95;6.00;;;;;;;34.88;24.79;98741.91;4963058;28;20046;-60
2023/04/12 07:29:02;;;;;;;20.38;5.85;;;;;;;34.60;29.27;98744.66;4962913;28;20047;-61
2023/04/12 07:31:31;;;;;;;14.40;4.72;;;;;;;34.69;27.06;98737.09;4971579;28;20117;-61
2023/04/12 07:34:01;;;;;;;15.95;5.22;;;;;;;34.27;25.14;98729.16;4977985;28;20046;-58
2023/04/12 07:36:31;;;;;;;18.63;4.45;;;;;;;34.36;26.39;98720.78;4972696;28;20050;-60
2023/04/12 07:39:00;;;;;;;12.82;5.88;;;;;;;34.43;25.16;98715.50;4963247;28;20051;-59
2023/04/12 07:41:31;;;;;;;19.77;5.50;;;;;;;34.46;26.59;98712.03;4974225;28;20506;-58
2023/04/12 07:44:01;;;;;;;13.48;4.93;;;;;;;34.28;26.64;98714.25;4973661;28;20051;-60
2023/04/12 07:46:30;;;;;;;18.80;5.53;;;;;;;34.11;28.92;98708.22;4971432;28;20522;-61
2023/04/12 07:49:01;;;;;;;14.63;4.72;;;;;;;33.83;27.25;98706.19;4974155;28;20436;-60
2023/04/12 07:51:31;;;;;;;18.17;4.53;;;;;;;33.66;29.78;98708.38;4972974;28;20137;-60
2023/04/12 07:54:01;;;;;;;19.00;5.85;;;;;;;33.32;30.62;98695.88;4976920;28;20057;-59
2023/04/12 07:56:33;;;;;;;11.40;4.55;;;;;;;33.40;30.32;98692.22;4976707;28;20042;-60
2023/04/12 07:59:03;;;;;;;14.55;4.60;;;;;;;33.27;31.34;98690.59;4973354;28;20158;-60
2023/04/12 08:01:32;;;;;;;18.33;4.95;;;;;;;33.27;29.86;98685.13;4972707;28;20061;-61
2023/04/12 08:04:02;;;;;;;18.67;4.85;;;;;;;33.73;25.83;98681.91;4971558;28;20050;-60
2023/04/12 08:06:32;;;;;;;16.90;5.47;;;;;;;34.05;27.59;98682.09;4971996;28;20043;-59
2023/04/12 08:09:02;;;;;;;12.60;4.57;;;;;;;34.03;27.27;98681.66;4970858;28;20065;-59
2023/04/12 08:11:34;;;;;;;22.73;5.75;;;;;;;34.21;26.30;98678.28;4968035;28;20057;-60
2023/04/12 08:14:03;;;;;;;23.60;4.75;;;;;;;34.47;27.26;98675.13;4970846;28;20062;-58
2023/04/12 08:16:33;;;;;;;22.30;4.65;;;;;;;34.59;27.17;98666.81;4969890;28;20051;-60
2023/04/12 08:19:04;;;;;;;17.05;4.80;;;;;;;34.72;26.97;98665.63;4976093;28;20060;-60
2023/04/12 08:21:33;;;;;;;21.38;5.55;;;;;;;34.88;26.26;98653.81;4984183;28;20106;-60
2023/04/12 08:24:04;;;;;;;26.20;5.05;;;;;;;34.76;27.65;98653.91;4967311;28;20068;-60
2023/04/12 08:26:33;;;;;;;17.40;5.05;;;;;;;34.90;27.41;98652.31;4948275;28;20056;-58
2023/04/12 08:29:03;;;;;;;23.05;5.43;;;;;;;35.03;24.37;98650.28;4972576;28;20137;-61
2023/04/12 08:31:33;;;;;;;26.95;5.97;;;;;;;35.10;24.72;98648.50;4971187;28;20323;-61
2023/04/12 08:34:02;;;;;;;16.85;5.35;;;;;;;35.10;23.96;98643.00;4968279;28;20431;-62
2023/04/12 08:36:32;;;;;;;14.90;4.97;;;;;;;35.12;26.52;98634.38;4974981;28;20046;-60
2023/04/12 08:39:02;;;;;;;27.65;5.40;;;;;;;34.99;26.42;98636.44;4977910;28;20046;-59
2023/04/12 08:41:33;;;;;;;22.23;5.07;;;;;;;34.95;26.39;98623.75;4972157;28;20371;-63
2023/04/12 08:44:06;;;;;;;10.57;4.95;;;;;;;34.91;27.28;98622.84;4971128;28;20068;-60
2023/04/12 08:46:36;;;;;;;12.38;4.43;;;;;;;34.84;28.77;98619.91;4973862;28;20098;-59
2023/04/12 08:49:05;;;;;;;30.08;5.45;;;;;;;34.68;29.67;98626.19;4966112;28;21677;-60
2023/04/12 08:51:36;;;;;;;26.80;4.65;;;;;;;34.37;27.57;98628.84;4973667;28;20046;-62
2023/04/12 08:54:06;;;;;;;20.50;5.57;;;;;;;34.42;27.88;98619.56;4970793;28;20533;-59
2023/04/12 08:56:36;;;;;;;14.70;4.47;;;;;;;34.61;25.93;98614.97;4966020;28;20038;-58
2023/04/12 08:59:05;;;;;;;23.48;5.00;;;;;;;34.60;25.86;98602.38;4974669;28;20070;-60
2023/04/12 09:01:36;;;;;;;21.02;4.70;;;;;;;34.66;26.86;98603.72;4969694;28;20133;-60
2023/04/12 09:04:06;;;;;;;23.85;5.25;;;;;;;34.50;26.63;98597.38;4962172;28;20186;-60
2023/04/12 09:06:36;;;;;;;17.42;4.22;;;;;;;34.64;26.54;98592.25;4973918;28;20045;-61
2023/04/12 09:09:05;;;;;;;13.73;4.72;;;;;;;34.52;26.73;98583.28;4973379;28;20466;-60
2023/04/12 09:11:36;;;;;;;20.05;4.60;;;;;;;34.08;29.35;98576.94;4976825;28;20073;-62
2023/04/12 09:14:26;;;;;;;20.10;4.47;;;;;;;33.86;28.67;98578.28;4974096;28;20045;-61
2023/04/12 09:16:55;;;;;;;16.77;4.50;;;;;;;33.78;29.89;98576.47;4970543;28;20046;-59
2023/04/12 09:19:34;;;;;;;15.50;4.50;;;;;;;33.81;29.72;98575.78;4955908;28;20046;-62
2023/04/12 09:22:04;;;;;;;14.77;4.50;;;;;;;33.77;30.96;98569.38;4972280;28;20448;-60
2023/04/12 09:24:50;;;;;;;15.90;4.70;;;;;;;33.36;31.84;98562.25;4973808;28;20112;-59
2023/04/12 09:27:20;;;;;;;13.00;4.30;;;;;;;33.53;27.84;98558.44;4962502;28;20450;-59
2023/04/12 09:29:53;;;;;;;11.38;4.65;;;;;;;33.44;30.29;98555.81;4963943;28;20049;-61
2023/04/12 09:32:28;;;;;;;22.35;4.35;;;;;;;33.56;27.23;98554.97;4963156;28;20737;-60
2023/04/12 09:35:01;;;;;;;21.58;4.50;;;;;;;33.50;29.83;98551.69;4973452;28;20134;-62
2023/04/12 09:37:34;;;;;;;14.65;4.45;;;;;;;33.46;29.21;98547.25;4973242;28;20049;-62
2023/04/12 09:40:06;;;;;;;12.63;4.18;;;;;;;33.52;25.79;98543.09;4960755;28;20062;-61
2023/04/12 09:42:51;;;;;;;20.73;4.30;;;;;;;33.38;29.17;98540.72;4962765;28;20051;-61
2023/04/12 09:45:24;;;;;;;14.38;4.55;;;;;;;33.18;28.83;98536.97;4967829;28;20059;-61
2023/04/12 09:47:54;;;;;;;10.85;3.70;;;;;;;33.58;26.54;98534.28;4969819;28;20050;-65
2023/04/12 09:50:27;;;;;;;15.57;4.38;;;;;;;33.80;27.33;98533.78;4952637;28;20095;-63
2023/04/12 09:52:58;;;;;;;8.85;4.00;;;;;;;33.94;26.55;98530.63;4967178;28;20058;-64
2023/04/12 09:55:33;;;;;;;12.18;4.35;;;;;;;33.97;26.23;98529.09;4970531;28;20057;-63
2023/04/12 09:58:03;;;;;;;9.85;4.00;;;;;;;34.08;25.35;98528.25;4946474;28;20074;-60
2023/04/12 10:00:35;;;;;;;22.00;4.47;;;;;;;34.15;25.35;98514.72;4945622;28;20559;-60
2023/04/12 10:03:05;;;;;;;15.43;4.15;;;;;;;34.27;25.00;98511.09;4938133;28;20482;-61
2023/04/12 10:05:39;;;;;;;22.20;4.82;;;;;;;34.39;23.78;98513.78;4967424;28;20058;-60
2023/04/12 10:08:12;;;;;;;22.80;6.28;;;;;;;34.39;24.41;98507.50;4971585;28;20045;-61
2023/04/12 10:10:45;;;;;;;17.15;4.28;;;;;;;34.40;24.20;98509.88;4971950;28;20046;-60
2023/04/12 10:13:16;;;;;;;14.25;4.75;;;;;;;33.88;27.31;98503.72;4967423;28;20125;-62
2023/04/12 10:15:49;;;;;;;18.77;4.85;;;;;;;33.83;27.03;98502.84;4965102;28;20138;-61
2023/04/12 10:18:18;;;;;;;;;;;;;;;33.72;24.40;98507.25;4976906;28;20542;-61
2023/04/12 10:20:48;;;;;;;19.42;4.47;;;;;;;33.68;26.53;98495.31;4975805;28;19922;-61
2023/04/12 10:23:19;;;;;;;13.85;4.10;;;;;;;33.56;25.27;98500.84;4964306;28;20812;-60
2023/04/12 10:25:50;;;;;;;16.85;4.35;;;;;;;33.50;28.17;98502.25;4980077;28;20046;-60
2023/04/12 10:28:22;;;;;;;15.60;4.10;;;;;;;33.16;28.03;98489.03;4975037;28;20074;-62
2023/04/12 10:30:56;;;;;;;10.65;4.20;;;;;;;33.02;30.29;98496.84;4973238;28;20050;-63
2023/04/12 10:33:29;;;;;;;19.15;4.88;;;;;;;32.61;30.67;98489.59;4977131;28;20038;-60
2023/04/12 10:36:09;;;;;;;10.02;4.50;;;;;;;32.73;30.92;98487.69;4964844;28;20084;-61
2023/04/12 10:39:08;;;;;;;14.93;4.18;;;;;;;32.87;27.56;98488.16;4958464;28;20112;-64
2023/04/12 10:41:38;;;;;;;12.60;4.07;;;;;;;32.65;28.91;98488.59;4975598;28;20074;-63
2023/04/12 10:44:25;;;;;;;19.27;3.70;;;;;;;32.49;31.87;98484.88;4970160;28;20057;-62
2023/04/12 10:46:55;;;;;;;14.07;5.03;;;;;;;32.53;30.60;98478.38;4975852;28;20859;-65
2023/04/12 10:49:25;;;;;;;13.63;4.72;;;;;;;32.20;30.53;98480.41;4972933;28;20137;-63
2023/04/12 10:52:01;;;;;;;13.43;3.60;;;;;;;32.60;26.26;98477.03;4976463;28;20124;-61
2023/04/12 10:54:36;;;;;;;15.63;4.18;;;;;;;32.61;28.70;98476.69;4972396;28;20677;-61
2023/04/12 10:57:42;;;;;;;18.13;4.38;;;;;;;32.39;30.56;98466.97;4974879;28;20146;-61
2023/04/12 11:00:13;;;;;;;23.40;6.13;;;;;;;32.32;26.89;98466.72;4975961;28;20516;-59
2023/04/12 11:03:10;;;;;;;23.00;6.65;;;;;;;32.71;26.32;98469.97;4980795;28;20050;-58
2023/04/12 11:06:03;;;;;;;17.50;6.13;;;;;;;32.92;26.56;98468.72;4985332;28;20034;-60
2023/04/12 11:09:21;;;;;;;17.52;4.05;;;;;;;33.03;26.56;98465.47;4980838;28;20105;-60
2023/04/12 11:12:17;;;;;;;19.08;4.25;;;;;;;33.15;26.41;98460.00;4977383;28;20053;-57
2023/04/12 11:14:49;;;;;;;17.85;4.18;;;;;;;33.21;27.40;98459.41;4975970;28;20062;-61
2023/04/12 11:17:25;;;;;;;17.70;5.13;;;;;;;33.26;25.68;98461.91;4977947;28;20414;-60
2023/04/12 11:19:57;;;;;;;21.30;4.70;;;;;;;33.46;25.24;98460.13;4965399;28;20046;-60
2023/04/12 11:22:30;;;;;;;12.70;4.15;;;;;;;33.32;26.92;98462.47;4987230;28;20413;-59
2023/04/12 11:25:02;;;;;;;15.77;3.70;;;;;;;33.24;26.56;98455.16;4968626;28;20047;-60
2023/04/12 11:27:33;;;;;;;17.25;4.43;;;;;;;33.02;28.66;98461.16;4975640;28;20125;-61
2023/04/12 11:30:03;;;;;;;16.65;3.72;;;;;;;32.71;30.98;98458.97;4970444;28;20110;-61
2023/04/12 11:32:40;;;;;;;18.42;4.13;;;;;;;32.43;30.48;98461.59;4974060;28;20069;-60
2023/04/12 11:35:09;;;;;;;24.55;4.60;;;;;;;32.65;27.48;98458.44;4958991;28;20114;-60
2023/04/12 11:37:39;;;;;;;16.02;4.40;;;;;;;32.34;30.74;98452.69;4960561;28;20796;-60
2023/04/12 11:40:09;;;;;;;26.75;4.78;;;;;;;32.25;30.81;98454.72;4974755;28;20047;-61
2023/04/12 11:42:40;;;;;;;16.30;4.03;;;;;;;32.02;31.13;98455.09;4985628;28;20054;-60
2023/04/12 11:45:10;;;;;;;22.75;4.07;;;;;;;31.85;31.44;98454.50;4981885;28;20074;-63
2023/04/12 11:47:46;;;;;;;20.83;4.88;;;;;;;31.71;30.00;98451.25;4979602;28;20046;-63
2023/04/12 11:50:31;;;;;;;22.27;4.55;;;;;;;31.85;30.89;98451.75;4969420;28;20450;-63